sensor_id;sensor_type;location;lat;lon;timestamp;P1;durP1;ratioP1;P2;durP2;ratioP2
9819;SDS011;4949;48.482;9.206;2023-01-13T00:00:08;1.73;;;1.30;;
9819;SDS011;4949;48.482;9.206;2023-01-13T00:05:10;1.93;;;1.73;;
9819;SDS011;4949;48.482;9.206;2023-01-13T00:10:11;1.60;;;1.50;;
9819;SDS011;4949;48.482;9.206;2023-01-13T00:15:12;3.17;;;1.70;;
9819;SDS011;4949;48.482;9.206;2023-01-13T00:20:15;1.43;;;1.33;;
9819;SDS011;4949;48.482;9.206;2023-01-13T00:25:16;2.00;;;1.47;;
9819;SDS011;4949;48.482;9.206;2023-01-13T00:30:17;1.63;;;1.30;;
9819;SDS011;4949;48.482;9.206;2023-01-13T00:35:18;1.60;;;1.30;;
9819;SDS011;4949;48.482;9.206;2023-01-13T00:40:21;1.63;;;1.30;;
9819;SDS011;4949;48.482;9.206;2023-01-13T00:45:26;1.60;;;1.40;;
9819;SDS011;4949;48.482;9.206;2023-01-13T00:50:27;1.60;;;1.50;;
9819;SDS011;4949;48.482;9.206;2023-01-13T00:55:30;2.20;;;1.37;;
9819;SDS011;4949;48.482;9.206;2023-01-13T01:00:31;1.20;;;1.10;;
9819;SDS011;4949;48.482;9.206;2023-01-13T01:05:32;1.47;;;1.30;;
9819;SDS011;4949;48.482;9.206;2023-01-13T01:10:33;1.20;;;1.10;;
9819;SDS011;4949;48.482;9.206;2023-01-13T01:15:40;1.63;;;1.30;;
9819;SDS011;4949;48.482;9.206;2023-01-13T01:20:40;2.50;;;1.23;;
9819;SDS011;4949;48.482;9.206;2023-01-13T01:25:44;1.73;;;1.53;;
9819;SDS011;4949;48.482;9.206;2023-01-13T01:30:44;1.30;;;1.20;;
9819;SDS011;4949;48.482;9.206;2023-01-13T01:35:45;1.57;;;1.23;;
9819;SDS011;4949;48.482;9.206;2023-01-13T01:40:47;2.63;;;1.40;;
9819;SDS011;4949;48.482;9.206;2023-01-13T01:45:48;2.10;;;1.53;;
9819;SDS011;4949;48.482;9.206;2023-01-13T01:50:51;1.43;;;1.33;;
9819;SDS011;4949;48.482;9.206;2023-01-13T01:55:52;1.33;;;1.23;;
9819;SDS011;4949;48.482;9.206;2023-01-13T02:00:55;1.50;;;1.40;;
9819;SDS011;4949;48.482;9.206;2023-01-13T02:05:56;2.50;;;1.30;;
9819;SDS011;4949;48.482;9.206;2023-01-13T02:10:59;1.30;;;1.20;;
9819;SDS011;4949;48.482;9.206;2023-01-13T02:16:11;4.90;;;1.50;;
9819;SDS011;4949;48.482;9.206;2023-01-13T02:27:21;3.33;;;2.17;;
9819;SDS011;4949;48.482;9.206;2023-01-13T02:39:00;1.37;;;1.27;;
9819;SDS011;4949;48.482;9.206;2023-01-13T02:44:08;1.40;;;1.30;;
9819;SDS011;4949;48.482;9.206;2023-01-13T02:49:17;4.03;;;1.60;;
9819;SDS011;4949;48.482;9.206;2023-01-13T02:54:29;2.40;;;1.33;;
9819;SDS011;4949;48.482;9.206;2023-01-13T02:59:36;1.93;;;1.40;;
9819;SDS011;4949;48.482;9.206;2023-01-13T03:04:47;1.83;;;1.53;;
9819;SDS011;4949;48.482;9.206;2023-01-13T03:09:54;2.60;;;1.10;;
9819;SDS011;4949;48.482;9.206;2023-01-13T03:21:02;1.30;;;1.20;;
9819;SDS011;4949;48.482;9.206;2023-01-13T03:26:08;4.23;;;1.70;;
9819;SDS011;4949;48.482;9.206;2023-01-13T03:37:39;1.37;;;1.27;;
9819;SDS011;4949;48.482;9.206;2023-01-13T03:42:46;1.20;;;1.10;;
9819;SDS011;4949;48.482;9.206;2023-01-13T03:48:12;1.73;;;1.30;;
9819;SDS011;4949;48.482;9.206;2023-01-13T03:53:19;1.60;;;1.20;;
9819;SDS011;4949;48.482;9.206;2023-01-13T03:58:34;1.40;;;1.13;;
9819;SDS011;4949;48.482;9.206;2023-01-13T04:03:41;1.60;;;1.50;;
9819;SDS011;4949;48.482;9.206;2023-01-13T04:08:54;1.83;;;1.50;;
9819;SDS011;4949;48.482;9.206;2023-01-13T04:14:08;1.30;;;1.20;;
9819;SDS011;4949;48.482;9.206;2023-01-13T04:19:14;1.20;;;1.10;;
9819;SDS011;4949;48.482;9.206;2023-01-13T04:24:14;1.63;;;1.00;;
9819;SDS011;4949;48.482;9.206;2023-01-13T04:29:17;3.40;;;1.50;;
9819;SDS011;4949;48.482;9.206;2023-01-13T04:34:22;1.30;;;1.20;;
9819;SDS011;4949;48.482;9.206;2023-01-13T04:39:23;1.20;;;1.10;;
9819;SDS011;4949;48.482;9.206;2023-01-13T04:44:27;1.20;;;1.10;;
9819;SDS011;4949;48.482;9.206;2023-01-13T04:49:30;1.87;;;1.17;;
9819;SDS011;4949;48.482;9.206;2023-01-13T04:54:31;1.20;;;1.10;;
9819;SDS011;4949;48.482;9.206;2023-01-13T04:59:31;1.13;;;1.03;;
9819;SDS011;4949;48.482;9.206;2023-01-13T05:04:34;1.20;;;1.10;;
9819;SDS011;4949;48.482;9.206;2023-01-13T05:09:37;1.00;;;1.00;;
9819;SDS011;4949;48.482;9.206;2023-01-13T05:14:38;1.17;;;1.10;;
9819;SDS011;4949;48.482;9.206;2023-01-13T05:19:57;2.17;;;0.97;;
9819;SDS011;4949;48.482;9.206;2023-01-13T05:25:00;1.87;;;1.10;;
9819;SDS011;4949;48.482;9.206;2023-01-13T05:30:20;1.10;;;1.00;;
9819;SDS011;4949;48.482;9.206;2023-01-13T05:35:24;1.27;;;1.17;;
9819;SDS011;4949;48.482;9.206;2023-01-13T05:40:28;1.17;;;1.10;;
9819;SDS011;4949;48.482;9.206;2023-01-13T05:50:52;0.93;;;0.93;;
9819;SDS011;4949;48.482;9.206;2023-01-13T05:55:55;1.23;;;1.13;;
9819;SDS011;4949;48.482;9.206;2023-01-13T06:01:00;1.10;;;1.03;;
9819;SDS011;4949;48.482;9.206;2023-01-13T06:06:05;1.20;;;1.10;;
9819;SDS011;4949;48.482;9.206;2023-01-13T06:11:07;2.20;;;1.90;;
9819;SDS011;4949;48.482;9.206;2023-01-13T06:16:08;1.10;;;1.00;;
9819;SDS011;4949;48.482;9.206;2023-01-13T06:21:09;1.93;;;1.50;;
9819;SDS011;4949;48.482;9.206;2023-01-13T06:26:12;1.10;;;1.00;;
9819;SDS011;4949;48.482;9.206;2023-01-13T06:31:20;1.00;;;1.00;;
9819;SDS011;4949;48.482;9.206;2023-01-13T06:36:23;0.90;;;0.90;;
9819;SDS011;4949;48.482;9.206;2023-01-13T06:41:31;1.07;;;1.07;;
9819;SDS011;4949;48.482;9.206;2023-01-13T06:46:51;1.00;;;1.00;;
9819;SDS011;4949;48.482;9.206;2023-01-13T06:51:52;1.43;;;1.10;;
9819;SDS011;4949;48.482;9.206;2023-01-13T06:56:52;1.07;;;0.97;;
9819;SDS011;4949;48.482;9.206;2023-01-13T07:01:53;1.10;;;1.00;;
9819;SDS011;4949;48.482;9.206;2023-01-13T07:06:56;1.73;;;1.20;;
9819;SDS011;4949;48.482;9.206;2023-01-13T07:12:00;2.17;;;1.00;;
9819;SDS011;4949;48.482;9.206;2023-01-13T07:17:03;0.90;;;0.90;;
9819;SDS011;4949;48.482;9.206;2023-01-13T07:22:03;0.93;;;0.93;;
9819;SDS011;4949;48.482;9.206;2023-01-13T07:27:04;0.90;;;0.90;;
9819;SDS011;4949;48.482;9.206;2023-01-13T07:32:09;1.30;;;1.20;;
9819;SDS011;4949;48.482;9.206;2023-01-13T07:37:10;1.17;;;1.10;;
9819;SDS011;4949;48.482;9.206;2023-01-13T07:42:11;1.10;;;1.00;;
9819;SDS011;4949;48.482;9.206;2023-01-13T07:47:30;1.00;;;1.00;;
9819;SDS011;4949;48.482;9.206;2023-01-13T07:52:36;1.27;;;1.17;;
9819;SDS011;4949;48.482;9.206;2023-01-13T07:57:37;1.10;;;1.00;;
9819;SDS011;4949;48.482;9.206;2023-01-13T08:02:37;1.27;;;1.17;;
9819;SDS011;4949;48.482;9.206;2023-01-13T08:07:38;1.20;;;1.10;;
9819;SDS011;4949;48.482;9.206;2023-01-13T08:12:43;0.90;;;0.90;;
9819;SDS011;4949;48.482;9.206;2023-01-13T08:18:05;1.87;;;1.10;;
9819;SDS011;4949;48.482;9.206;2023-01-13T08:23:08;1.30;;;1.13;;
9819;SDS011;4949;48.482;9.206;2023-01-13T08:28:11;0.97;;;0.97;;
9819;SDS011;4949;48.482;9.206;2023-01-13T08:33:16;0.90;;;0.90;;
9819;SDS011;4949;48.482;9.206;2023-01-13T08:38:19;0.80;;;0.80;;
9819;SDS011;4949;48.482;9.206;2023-01-13T08:43:22;1.00;;;1.00;;
9819;SDS011;4949;48.482;9.206;2023-01-13T08:48:22;1.30;;;1.20;;
9819;SDS011;4949;48.482;9.206;2023-01-13T08:53:24;1.07;;;1.00;;
9819;SDS011;4949;48.482;9.206;2023-01-13T08:58:24;1.03;;;0.93;;
9819;SDS011;4949;48.482;9.206;2023-01-13T09:03:25;0.90;;;0.90;;
9819;SDS011;4949;48.482;9.206;2023-01-13T09:08:28;1.93;;;1.00;;
9819;SDS011;4949;48.482;9.206;2023-01-13T09:13:36;1.03;;;1.03;;
9819;SDS011;4949;48.482;9.206;2023-01-13T09:18:40;0.90;;;0.90;;
9819;SDS011;4949;48.482;9.206;2023-01-13T09:23:41;0.90;;;0.90;;
9819;SDS011;4949;48.482;9.206;2023-01-13T09:28:44;2.53;;;0.90;;
9819;SDS011;4949;48.482;9.206;2023-01-13T09:33:45;0.90;;;0.90;;
9819;SDS011;4949;48.482;9.206;2023-01-13T09:39:07;1.33;;;0.90;;
9819;SDS011;4949;48.482;9.206;2023-01-13T09:44:10;1.37;;;1.00;;
9819;SDS011;4949;48.482;9.206;2023-01-13T09:49:21;0.90;;;0.90;;
9819;SDS011;4949;48.482;9.206;2023-01-13T09:54:34;1.00;;;1.00;;
9819;SDS011;4949;48.482;9.206;2023-01-13T09:59:42;0.90;;;0.90;;
9819;SDS011;4949;48.482;9.206;2023-01-13T10:05:00;1.00;;;1.00;;
9819;SDS011;4949;48.482;9.206;2023-01-13T10:10:07;1.10;;;1.00;;
9819;SDS011;4949;48.482;9.206;2023-01-13T10:15:20;0.90;;;0.90;;
9819;SDS011;4949;48.482;9.206;2023-01-13T10:25:39;1.37;;;1.00;;
9819;SDS011;4949;48.482;9.206;2023-01-13T10:30:59;1.30;;;1.20;;
9819;SDS011;4949;48.482;9.206;2023-01-13T10:36:15;1.20;;;1.10;;
9819;SDS011;4949;48.482;9.206;2023-01-13T10:41:26;1.40;;;1.30;;
9819;SDS011;4949;48.482;9.206;2023-01-13T10:46:33;1.33;;;1.23;;
9819;SDS011;4949;48.482;9.206;2023-01-13T10:51:51;1.10;;;1.00;;
9819;SDS011;4949;48.482;9.206;2023-01-13T11:02:26;1.50;;;1.27;;
9819;SDS011;4949;48.482;9.206;2023-01-13T11:07:47;1.20;;;1.10;;
9819;SDS011;4949;48.482;9.206;2023-01-13T11:23:29;1.10;;;1.00;;
9819;SDS011;4949;48.482;9.206;2023-01-13T11:28:49;1.10;;;1.00;;
9819;SDS011;4949;48.482;9.206;2023-01-13T11:34:05;1.27;;;1.13;;
9819;SDS011;4949;48.482;9.206;2023-01-13T11:39:33;1.00;;;1.00;;
9819;SDS011;4949;48.482;9.206;2023-01-13T11:44:53;2.73;;;1.20;;
9819;SDS011;4949;48.482;9.206;2023-01-13T12:12:55;1.07;;;1.00;;
9819;SDS011;4949;48.482;9.206;2023-01-13T12:24:16;1.40;;;1.30;;
9819;SDS011;4949;48.482;9.206;2023-01-13T12:29:27;1.37;;;1.27;;
9819;SDS011;4949;48.482;9.206;2023-01-13T12:34:51;1.93;;;1.37;;
9819;SDS011;4949;48.482;9.206;2023-01-13T12:45:37;1.20;;;1.10;;
9819;SDS011;4949;48.482;9.206;2023-01-13T12:50:38;1.50;;;1.40;;
9819;SDS011;4949;48.482;9.206;2023-01-13T12:55:40;2.00;;;1.13;;
9819;SDS011;4949;48.482;9.206;2023-01-13T13:11:17;1.70;;;1.30;;
9819;SDS011;4949;48.482;9.206;2023-01-13T13:27:16;2.13;;;1.50;;
9819;SDS011;4949;48.482;9.206;2023-01-13T13:32:51;1.70;;;1.50;;
9819;SDS011;4949;48.482;9.206;2023-01-13T13:44:01;3.83;;;1.40;;
9819;SDS011;4949;48.482;9.206;2023-01-13T13:49:40;2.20;;;1.50;;
9819;SDS011;4949;48.482;9.206;2023-01-13T13:54:52;2.57;;;1.47;;
9819;SDS011;4949;48.482;9.206;2023-01-13T13:59:57;2.37;;;1.50;;
9819;SDS011;4949;48.482;9.206;2023-01-13T14:05:06;3.40;;;2.00;;
9819;SDS011;4949;48.482;9.206;2023-01-13T14:10:21;2.00;;;1.50;;
9819;SDS011;4949;48.482;9.206;2023-01-13T14:15:27;2.30;;;1.77;;
9819;SDS011;4949;48.482;9.206;2023-01-13T14:20:37;1.93;;;1.73;;
9819;SDS011;4949;48.482;9.206;2023-01-13T14:25:45;2.73;;;1.80;;
9819;SDS011;4949;48.482;9.206;2023-01-13T14:30:49;2.70;;;1.83;;
9819;SDS011;4949;48.482;9.206;2023-01-13T14:36:06;3.63;;;1.90;;
9819;SDS011;4949;48.482;9.206;2023-01-13T14:41:33;2.43;;;1.83;;
9819;SDS011;4949;48.482;9.206;2023-01-13T14:46:46;2.30;;;1.90;;
9819;SDS011;4949;48.482;9.206;2023-01-13T14:51:47;2.53;;;1.70;;
9819;SDS011;4949;48.482;9.206;2023-01-13T14:56:50;6.57;;;2.47;;
9819;SDS011;4949;48.482;9.206;2023-01-13T15:01:52;3.50;;;1.97;;
9819;SDS011;4949;48.482;9.206;2023-01-13T15:06:54;6.70;;;3.10;;
9819;SDS011;4949;48.482;9.206;2023-01-13T15:11:56;2.47;;;1.63;;
9819;SDS011;4949;48.482;9.206;2023-01-13T15:17:15;3.33;;;1.70;;
9819;SDS011;4949;48.482;9.206;2023-01-13T15:22:17;2.20;;;1.70;;
9819;SDS011;4949;48.482;9.206;2023-01-13T15:27:21;3.03;;;1.87;;
9819;SDS011;4949;48.482;9.206;2023-01-13T15:32:25;2.13;;;1.57;;
9819;SDS011;4949;48.482;9.206;2023-01-13T15:37:26;2.60;;;1.67;;
9819;SDS011;4949;48.482;9.206;2023-01-13T15:42:26;3.23;;;2.00;;
9819;SDS011;4949;48.482;9.206;2023-01-13T15:47:45;3.00;;;2.20;;
9819;SDS011;4949;48.482;9.206;2023-01-13T15:52:50;3.17;;;2.27;;
9819;SDS011;4949;48.482;9.206;2023-01-13T15:57:54;3.33;;;1.97;;
9819;SDS011;4949;48.482;9.206;2023-01-13T16:02:55;3.30;;;1.70;;
9819;SDS011;4949;48.482;9.206;2023-01-13T16:07:55;3.60;;;1.87;;
9819;SDS011;4949;48.482;9.206;2023-01-13T16:12:59;4.50;;;1.97;;
9819;SDS011;4949;48.482;9.206;2023-01-13T16:18:01;4.03;;;2.20;;
9819;SDS011;4949;48.482;9.206;2023-01-13T16:23:03;7.07;;;2.30;;
9819;SDS011;4949;48.482;9.206;2023-01-13T16:28:04;3.83;;;1.93;;
9819;SDS011;4949;48.482;9.206;2023-01-13T16:33:07;2.53;;;1.83;;
9819;SDS011;4949;48.482;9.206;2023-01-13T16:38:12;5.00;;;2.50;;
9819;SDS011;4949;48.482;9.206;2023-01-13T16:43:15;7.80;;;2.00;;
9819;SDS011;4949;48.482;9.206;2023-01-13T16:48:19;3.90;;;2.40;;
9819;SDS011;4949;48.482;9.206;2023-01-13T16:53:21;3.60;;;1.90;;
9819;SDS011;4949;48.482;9.206;2023-01-13T16:58:24;3.07;;;2.10;;
9819;SDS011;4949;48.482;9.206;2023-01-13T17:03:25;2.90;;;2.00;;
9819;SDS011;4949;48.482;9.206;2023-01-13T17:08:26;3.50;;;2.27;;
9819;SDS011;4949;48.482;9.206;2023-01-13T17:13:29;3.47;;;2.27;;
9819;SDS011;4949;48.482;9.206;2023-01-13T17:18:32;2.13;;;2.00;;
9819;SDS011;4949;48.482;9.206;2023-01-13T17:23:33;2.63;;;1.70;;
9819;SDS011;4949;48.482;9.206;2023-01-13T17:28:33;2.57;;;2.07;;
9819;SDS011;4949;48.482;9.206;2023-01-13T17:33:34;3.20;;;1.80;;
9819;SDS011;4949;48.482;9.206;2023-01-13T17:38:36;1.70;;;1.60;;
9819;SDS011;4949;48.482;9.206;2023-01-13T17:43:36;1.97;;;1.60;;
9819;SDS011;4949;48.482;9.206;2023-01-13T17:48:38;3.80;;;2.20;;
9819;SDS011;4949;48.482;9.206;2023-01-13T17:53:43;2.90;;;1.70;;
9819;SDS011;4949;48.482;9.206;2023-01-13T17:58:44;3.07;;;1.87;;
9819;SDS011;4949;48.482;9.206;2023-01-13T18:03:45;2.60;;;1.20;;
9819;SDS011;4949;48.482;9.206;2023-01-13T18:08:47;1.17;;;1.10;;
9819;SDS011;4949;48.482;9.206;2023-01-13T18:13:49;1.30;;;1.20;;
9819;SDS011;4949;48.482;9.206;2023-01-13T18:19:00;1.60;;;1.20;;
9819;SDS011;4949;48.482;9.206;2023-01-13T18:24:23;3.70;;;1.87;;
9819;SDS011;4949;48.482;9.206;2023-01-13T18:29:42;2.40;;;1.47;;
9819;SDS011;4949;48.482;9.206;2023-01-13T18:34:43;1.77;;;1.30;;
9819;SDS011;4949;48.482;9.206;2023-01-13T18:39:44;1.53;;;1.10;;
9819;SDS011;4949;48.482;9.206;2023-01-13T18:44:44;1.70;;;1.60;;
9819;SDS011;4949;48.482;9.206;2023-01-13T18:49:47;1.40;;;1.10;;
9819;SDS011;4949;48.482;9.206;2023-01-13T18:54:48;1.50;;;1.40;;
9819;SDS011;4949;48.482;9.206;2023-01-13T18:59:51;1.30;;;1.20;;
9819;SDS011;4949;48.482;9.206;2023-01-13T19:04:55;1.40;;;1.30;;
9819;SDS011;4949;48.482;9.206;2023-01-13T19:09:56;1.60;;;1.50;;
9819;SDS011;4949;48.482;9.206;2023-01-13T19:14:59;1.63;;;1.50;;
9819;SDS011;4949;48.482;9.206;2023-01-13T19:20:01;2.13;;;1.40;;
9819;SDS011;4949;48.482;9.206;2023-01-13T19:25:06;1.80;;;1.43;;
9819;SDS011;4949;48.482;9.206;2023-01-13T19:30:07;1.97;;;1.40;;
9819;SDS011;4949;48.482;9.206;2023-01-13T19:35:10;1.77;;;1.57;;
9819;SDS011;4949;48.482;9.206;2023-01-13T19:40:16;1.70;;;1.60;;
9819;SDS011;4949;48.482;9.206;2023-01-13T19:45:19;3.83;;;1.63;;
9819;SDS011;4949;48.482;9.206;2023-01-13T19:50:28;2.40;;;1.67;;
9819;SDS011;4949;48.482;9.206;2023-01-13T19:55:28;3.67;;;1.80;;
9819;SDS011;4949;48.482;9.206;2023-01-13T20:00:30;2.23;;;2.03;;
9819;SDS011;4949;48.482;9.206;2023-01-13T20:05:32;2.90;;;2.20;;
9819;SDS011;4949;48.482;9.206;2023-01-13T20:10:35;4.70;;;1.80;;
9819;SDS011;4949;48.482;9.206;2023-01-13T20:15:37;2.30;;;1.53;;
9819;SDS011;4949;48.482;9.206;2023-01-13T20:20:38;3.30;;;2.10;;
9819;SDS011;4949;48.482;9.206;2023-01-13T20:25:40;3.57;;;1.67;;
9819;SDS011;4949;48.482;9.206;2023-01-13T20:30:41;5.73;;;2.10;;
9819;SDS011;4949;48.482;9.206;2023-01-13T20:35:42;2.13;;;1.60;;
9819;SDS011;4949;48.482;9.206;2023-01-13T20:40:44;9.40;;;2.20;;
9819;SDS011;4949;48.482;9.206;2023-01-13T20:45:44;4.13;;;1.60;;
9819;SDS011;4949;48.482;9.206;2023-01-13T20:50:50;4.13;;;2.13;;
9819;SDS011;4949;48.482;9.206;2023-01-13T20:55:53;2.60;;;1.60;;
9819;SDS011;4949;48.482;9.206;2023-01-13T21:00:56;3.90;;;2.00;;
9819;SDS011;4949;48.482;9.206;2023-01-13T21:05:58;1.93;;;1.67;;
9819;SDS011;4949;48.482;9.206;2023-01-13T21:10:59;3.60;;;1.90;;
9819;SDS011;4949;48.482;9.206;2023-01-13T21:16:03;3.97;;;1.90;;
9819;SDS011;4949;48.482;9.206;2023-01-13T21:21:04;4.43;;;2.30;;
9819;SDS011;4949;48.482;9.206;2023-01-13T21:26:12;5.43;;;1.83;;
9819;SDS011;4949;48.482;9.206;2023-01-13T21:31:16;6.50;;;2.10;;
9819;SDS011;4949;48.482;9.206;2023-01-13T21:36:17;2.70;;;2.03;;
9819;SDS011;4949;48.482;9.206;2023-01-13T21:41:18;7.87;;;4.10;;
9819;SDS011;4949;48.482;9.206;2023-01-13T21:46:39;3.73;;;1.90;;
9819;SDS011;4949;48.482;9.206;2023-01-13T21:52:01;5.00;;;2.10;;
9819;SDS011;4949;48.482;9.206;2023-01-13T21:57:04;2.97;;;2.00;;
9819;SDS011;4949;48.482;9.206;2023-01-13T22:02:04;2.77;;;2.00;;
9819;SDS011;4949;48.482;9.206;2023-01-13T22:07:27;4.57;;;2.27;;
9819;SDS011;4949;48.482;9.206;2023-01-13T22:12:28;2.47;;;1.63;;
9819;SDS011;4949;48.482;9.206;2023-01-13T22:17:29;3.50;;;1.90;;
9819;SDS011;4949;48.482;9.206;2023-01-13T22:22:33;8.73;;;2.57;;
9819;SDS011;4949;48.482;9.206;2023-01-13T22:27:36;3.57;;;2.00;;
9819;SDS011;4949;48.482;9.206;2023-01-13T22:32:41;4.60;;;2.07;;
9819;SDS011;4949;48.482;9.206;2023-01-13T22:37:42;5.27;;;2.70;;
9819;SDS011;4949;48.482;9.206;2023-01-13T22:42:42;2.37;;;1.70;;
9819;SDS011;4949;48.482;9.206;2023-01-13T22:47:46;3.33;;;3.03;;
9819;SDS011;4949;48.482;9.206;2023-01-13T22:52:49;3.03;;;1.97;;
9819;SDS011;4949;48.482;9.206;2023-01-13T22:57:49;4.50;;;2.63;;
9819;SDS011;4949;48.482;9.206;2023-01-13T23:02:52;5.57;;;2.00;;
9819;SDS011;4949;48.482;9.206;2023-01-13T23:07:55;3.17;;;1.90;;
9819;SDS011;4949;48.482;9.206;2023-01-13T23:12:56;4.37;;;1.83;;
9819;SDS011;4949;48.482;9.206;2023-01-13T23:17:57;4.60;;;3.40;;
9819;SDS011;4949;48.482;9.206;2023-01-13T23:23:00;5.30;;;2.73;;
9819;SDS011;4949;48.482;9.206;2023-01-13T23:28:00;5.43;;;1.97;;
9819;SDS011;4949;48.482;9.206;2023-01-13T23:33:01;2.63;;;2.37;;
9819;SDS011;4949;48.482;9.206;2023-01-13T23:38:04;2.13;;;1.90;;
9819;SDS011;4949;48.482;9.206;2023-01-13T23:43:10;4.77;;;2.20;;
9819;SDS011;4949;48.482;9.206;2023-01-13T23:48:13;6.43;;;1.77;;
9819;SDS011;4949;48.482;9.206;2023-01-13T23:53:17;2.80;;;1.90;;
9819;SDS011;4949;48.482;9.206;2023-01-13T23:58:18;5.50;;;2.50;;
